createdAt,value
2022-11-29T00:00:07.281Z,62.10
2022-11-29T00:03:45.908Z,59.40
2022-11-29T00:07:22.422Z,65.00
2022-11-29T00:11:07.202Z,59.80
2022-11-29T00:14:37.892Z,64.20
2022-11-29T00:18:15.904Z,73.30
2022-11-29T00:21:53.096Z,61.40
2022-11-29T00:25:30.800Z,62.40
2022-11-29T00:29:08.709Z,61.20
2022-11-29T00:32:46.927Z,59.70
2022-11-29T00:36:24.528Z,63.60
2022-11-29T00:40:01.662Z,77.20
2022-11-29T00:43:39.832Z,57.50
2022-11-29T00:47:16.871Z,52.90
2022-11-29T00:50:54.678Z,56.80
2022-11-29T00:54:32.334Z,57.70
2022-11-29T00:58:10.063Z,55.20
2022-11-29T01:01:47.809Z,59.50
2022-11-29T01:05:25.548Z,66.30
2022-11-29T01:09:04.378Z,58.90
2022-11-29T01:12:41.058Z,58.60
2022-11-29T01:16:19.026Z,49.30
2022-11-29T01:19:56.138Z,61.60
2022-11-29T01:23:35.658Z,50.50
2022-11-29T01:27:11.568Z,54.30
2022-11-29T01:30:49.267Z,58.10
2022-11-29T01:34:27.180Z,61.90
2022-11-29T01:38:04.679Z,54.40
2022-11-29T01:41:42.460Z,63.40
2022-11-29T01:45:25.333Z,62.40
2022-11-29T01:49:03.732Z,66.00
2022-11-29T01:52:35.701Z,57.00
2022-11-29T01:56:14.968Z,66.20
2022-11-29T01:59:54.899Z,54.80
2022-11-29T02:03:28.527Z,59.80
2022-11-29T02:07:06.415Z,64.80
2022-11-29T02:11:23.236Z,87.80
2022-11-29T02:14:39.744Z,67.00
2022-11-29T02:18:21.645Z,61.00
2022-11-29T02:22:16.553Z,60.90
2022-11-29T02:25:39.409Z,62.60
2022-11-29T02:29:46.094Z,63.20
2022-11-29T02:33:19.087Z,55.70
2022-11-29T02:37:08.643Z,66.20
2022-11-29T02:40:40.946Z,67.50
2022-11-29T02:44:14.965Z,58.00
2022-11-29T02:47:55.433Z,64.30
2022-11-29T02:51:29.797Z,55.60
2022-11-29T02:55:01.317Z,62.90
2022-11-29T02:58:47.828Z,61.90
2022-11-29T03:02:53.128Z,62.20
2022-11-29T03:06:23.718Z,74.00
2022-11-29T03:09:55.482Z,66.00
2022-11-29T03:13:40.588Z,67.10
2022-11-29T03:17:26.149Z,62.60
2022-11-29T03:20:39.791Z,65.00
2022-11-29T03:24:25.992Z,56.40
2022-11-29T03:28:05.325Z,64.80
2022-11-29T03:31:35.462Z,70.90
2022-11-29T03:35:15.002Z,69.40
2022-11-29T03:38:47.284Z,74.30
2022-11-29T03:42:30.518Z,77.20
2022-11-29T03:46:08.887Z,64.10
2022-11-29T03:49:45.828Z,70.80
2022-11-29T03:53:33.667Z,65.50
2022-11-29T03:56:54.166Z,59.20
2022-11-29T04:00:56.757Z,66.80
2022-11-29T04:04:47.098Z,64.00
2022-11-29T04:08:15.849Z,80.40
2022-11-29T04:12:04.308Z,63.70
2022-11-29T04:15:23.577Z,72.80
2022-11-29T04:19:31.901Z,52.00
2022-11-29T04:23:18.410Z,65.90
2022-11-29T04:26:56.115Z,67.40
2022-11-29T04:30:20.104Z,62.70
2022-11-29T04:34:17.978Z,79.70
2022-11-29T04:37:56.293Z,69.30
2022-11-29T04:41:14.180Z,60.80
2022-11-29T04:45:21.327Z,78.90
2022-11-29T04:49:09.986Z,64.30
2022-11-29T04:52:32.229Z,79.50
2022-11-29T04:56:18.023Z,70.80
2022-11-29T04:59:47.637Z,68.60
2022-11-29T05:03:57.803Z,76.40
2022-11-29T05:07:26.826Z,83.20
2022-11-29T05:11:10.549Z,70.10
2022-11-29T05:15:14.775Z,70.90
2022-11-29T05:18:58.930Z,74.40
2022-11-29T05:22:36.227Z,72.40
2022-11-29T05:25:58.261Z,79.10
2022-11-29T05:30:03.038Z,78.50
2022-11-29T05:33:36.505Z,78.30
2022-11-29T05:37:19.332Z,75.70
2022-11-29T05:41:03.997Z,79.90
2022-11-29T05:44:36.989Z,75.80
2022-11-29T05:48:04.351Z,68.60
2022-11-29T05:51:29.668Z,82.60
2022-11-29T05:55:27.543Z,87.20
2022-11-29T05:58:49.992Z,87.50
2022-11-29T06:02:58.229Z,86.10
2022-11-29T06:06:24.854Z,78.30
2022-11-29T06:09:59.181Z,76.10
2022-11-29T06:13:38.213Z,81.00
2022-11-29T06:17:26.670Z,84.50
2022-11-29T06:21:01.910Z,88.30
2022-11-29T06:24:31.132Z,84.20
2022-11-29T06:27:54.899Z,91.30
2022-11-29T06:31:34.608Z,95.20
2022-11-29T06:35:35.193Z,93.40
2022-11-29T06:38:48.114Z,93.20
2022-11-29T06:42:26.433Z,86.20
2022-11-29T06:46:16.003Z,97.50
2022-11-29T06:49:49.369Z,80.50
2022-11-29T06:53:47.708Z,94.70
2022-11-29T06:57:18.462Z,94.70
2022-11-29T07:00:49.930Z,91.90
2022-11-29T07:04:28.530Z,81.30
2022-11-29T07:07:55.745Z,82.40
2022-11-29T07:11:29.307Z,105.10
2022-11-29T07:15:07.315Z,103.30
2022-11-29T07:19:12.453Z,100.50
2022-11-29T07:22:58.144Z,95.60
2022-11-29T07:26:20.182Z,101.50
2022-11-29T07:30:05.568Z,111.10
2022-11-29T07:34:01.805Z,103.90
2022-11-29T07:37:27.017Z,85.50
2022-11-29T07:40:53.718Z,96.90
2022-11-29T07:44:40.480Z,100.70
2022-11-29T07:48:07.050Z,99.70
2022-11-29T07:51:43.189Z,93.90
2022-11-29T07:55:22.737Z,94.70
2022-11-29T07:58:58.129Z,104.10
2022-11-29T08:02:36.651Z,89.70
2022-11-29T08:06:13.801Z,103.80
2022-11-29T08:09:51.424Z,103.10
2022-11-29T08:13:29.005Z,104.70
2022-11-29T08:17:06.813Z,110.40
2022-11-29T08:20:46.329Z,111.00
2022-11-29T08:24:22.035Z,99.50
2022-11-29T08:28:02.489Z,109.60
2022-11-29T08:31:37.986Z,106.70
2022-11-29T08:35:16.359Z,114.40
2022-11-29T08:39:01.272Z,110.50
2022-11-29T08:42:30.741Z,108.80
2022-11-29T08:46:11.469Z,105.90
2022-11-29T08:50:04.282Z,115.80
2022-11-29T08:53:43.360Z,114.90
2022-11-29T09:00:40.581Z,101.20
2022-11-29T09:04:17.273Z,113.40
2022-11-29T09:07:54.792Z,101.40
2022-11-29T09:11:34.627Z,108.90
2022-11-29T09:15:10.948Z,110.80
2022-11-29T09:18:52.352Z,120.60
2022-11-29T09:22:25.487Z,103.10
2022-11-29T09:26:04.422Z,109.80
2022-11-29T09:29:40.654Z,93.00
2022-11-29T09:33:18.336Z,125.50
2022-11-29T09:36:56.206Z,114.80
2022-11-29T09:40:40.457Z,123.00
2022-11-29T09:44:25.948Z,105.70
2022-11-29T09:48:26.588Z,112.90
2022-11-29T09:51:53.437Z,113.90
2022-11-29T09:55:39.746Z,104.00
2022-11-29T09:58:59.056Z,119.40
2022-11-29T10:02:50.682Z,102.90
2022-11-29T10:06:13.605Z,113.00
2022-11-29T10:09:52.331Z,90.80
2022-11-29T10:13:32.093Z,104.00
2022-11-29T10:17:28.323Z,107.10
2022-11-29T10:20:47.462Z,117.20
2022-11-29T10:24:20.704Z,106.70
2022-11-29T10:27:55.325Z,129.20
2022-11-29T10:31:35.996Z,114.90
2022-11-29T10:35:16.184Z,118.20
2022-11-29T10:38:48.845Z,116.00
2022-11-29T10:42:46.840Z,114.40
2022-11-29T10:46:04.619Z,109.90
2022-11-29T10:49:40.522Z,79.80
2022-11-29T10:53:24.129Z,107.20
2022-11-29T10:56:59.103Z,110.40
2022-11-29T11:00:44.481Z,107.60
2022-11-29T11:04:26.597Z,102.10
2022-11-29T11:07:57.322Z,107.90
2022-11-29T11:11:30.641Z,119.00
2022-11-29T11:15:30.878Z,107.70
2022-11-29T11:18:44.717Z,107.30
2022-11-29T11:22:23.887Z,103.10
2022-11-29T11:26:02.343Z,100.50
2022-11-29T11:29:42.660Z,113.80
2022-11-29T11:33:26.390Z,108.00
2022-11-29T11:36:53.751Z,94.10
2022-11-29T11:40:30.924Z,109.10
2022-11-29T11:44:45.912Z,108.60
2022-11-29T11:47:53.520Z,112.20
2022-11-29T11:51:30.814Z,103.00
2022-11-29T11:55:36.576Z,116.70
2022-11-29T11:58:54.955Z,128.30
2022-11-29T12:02:33.974Z,102.00
2022-11-29T12:06:24.261Z,96.10
2022-11-29T12:09:55.927Z,123.40
2022-11-29T12:13:24.922Z,115.70
2022-11-29T12:17:05.290Z,105.30
2022-11-29T12:20:51.906Z,111.70
2022-11-29T12:24:28.083Z,96.20
2022-11-29T12:27:50.824Z,108.90
2022-11-29T12:31:29.192Z,105.80
2022-11-29T12:35:41.767Z,91.30
2022-11-29T12:39:03.396Z,105.80
2022-11-29T12:42:48.723Z,112.20
2022-11-29T12:46:19.803Z,107.90
2022-11-29T12:50:02.343Z,98.40
2022-11-29T12:53:52.334Z,120.60
2022-11-29T12:57:08.258Z,110.80
2022-11-29T13:00:53.866Z,117.50
2022-11-29T13:04:56.477Z,118.70
2022-11-29T13:08:25.100Z,103.90
2022-11-29T13:12:00.855Z,101.40
2022-11-29T13:15:46.961Z,114.80
2022-11-29T13:19:18.855Z,94.20
2022-11-29T13:23:39.076Z,128.30
2022-11-29T13:26:52.562Z,111.90
2022-11-29T13:30:29.381Z,123.10
2022-11-29T13:34:21.385Z,114.30
2022-11-29T13:38:20.496Z,100.90
2022-11-29T13:41:57.096Z,105.30
2022-11-29T13:45:27.199Z,97.00
2022-11-29T13:48:49.562Z,111.90
2022-11-29T13:53:15.610Z,116.60
2022-11-29T13:56:47.954Z,105.80
2022-11-29T14:00:06.518Z,116.90
2022-11-29T14:03:49.252Z,115.30
2022-11-29T14:07:20.551Z,118.60
2022-11-29T14:11:04.129Z,113.20
2022-11-29T14:14:52.379Z,119.20
2022-11-29T14:18:40.633Z,115.80
2022-11-29T14:22:07.192Z,114.20
2022-11-29T14:29:45.422Z,95.50
2022-11-29T14:33:05.412Z,99.50
2022-11-29T14:36:50.385Z,123.90
2022-11-29T14:40:31.680Z,92.90
2022-11-29T14:43:49.633Z,107.10
2022-11-29T14:47:38.567Z,89.90
2022-11-29T14:51:25.702Z,100.80
2022-11-29T14:55:02.653Z,124.10
2022-11-29T14:58:21.554Z,112.20
2022-11-29T15:02:37.703Z,104.40
2022-11-29T15:05:55.513Z,102.50
2022-11-29T15:09:27.774Z,131.90
2022-11-29T15:13:08.099Z,110.60
2022-11-29T15:16:57.927Z,123.10
2022-11-29T15:20:35.732Z,94.50
2022-11-29T15:24:11.917Z,117.40
2022-11-29T15:27:38.806Z,117.40
2022-11-29T15:31:19.976Z,107.40
2022-11-29T15:34:53.544Z,102.70
2022-11-29T15:38:28.621Z,102.80
2022-11-29T15:42:18.434Z,109.80
2022-11-29T15:45:52.556Z,115.60
2022-11-29T15:49:28.631Z,109.90
2022-11-29T15:53:05.227Z,101.60
2022-11-29T15:56:49.301Z,100.10
2022-11-29T16:00:20.473Z,108.70
2022-11-29T16:03:55.217Z,114.00
2022-11-29T16:07:32.708Z,115.00
2022-11-29T16:11:17.176Z,112.60
2022-11-29T16:14:52.695Z,121.50
2022-11-29T16:18:23.947Z,146.80
2022-11-29T16:22:13.296Z,118.60
2022-11-29T16:26:13.558Z,136.80
2022-11-29T16:29:38.416Z,126.30
2022-11-29T16:33:03.631Z,119.80
2022-11-29T16:36:39.533Z,126.30
2022-11-29T16:40:27.476Z,129.30
2022-11-29T16:43:56.271Z,120.40
2022-11-29T16:47:58.167Z,130.90
2022-11-29T16:51:10.351Z,129.30
2022-11-29T16:54:49.385Z,117.70
2022-11-29T16:58:25.654Z,120.60
2022-11-29T17:02:03.424Z,98.50
2022-11-29T17:05:44.679Z,111.20
2022-11-29T17:09:33.311Z,118.40
2022-11-29T17:13:01.615Z,114.90
2022-11-29T17:16:34.229Z,115.40
2022-11-29T17:20:13.005Z,104.80
2022-11-29T17:23:50.506Z,99.70
2022-11-29T17:27:27.083Z,102.40
2022-11-29T17:31:24.717Z,113.10
2022-11-29T17:35:07.992Z,117.50
2022-11-29T17:38:20.298Z,99.40
2022-11-29T17:42:01.383Z,109.60
2022-11-29T17:45:41.293Z,118.60
2022-11-29T17:49:13.418Z,123.90
2022-11-29T17:52:51.627Z,98.70
2022-11-29T17:56:52.580Z,101.20
2022-11-29T18:00:29.563Z,102.80
2022-11-29T18:04:08.534Z,113.60
2022-11-29T18:08:00.083Z,130.60
2022-11-29T18:11:28.513Z,128.80
2022-11-29T18:15:00.585Z,113.00
2022-11-29T18:18:39.735Z,125.60
2022-11-29T18:22:19.731Z,110.70
2022-11-29T18:25:59.380Z,113.50
2022-11-29T18:29:38.921Z,100.20
2022-11-29T18:33:09.003Z,122.80
2022-11-29T18:36:48.691Z,123.00
2022-11-29T18:40:24.209Z,118.10
2022-11-29T18:44:07.657Z,116.70
2022-11-29T18:47:42.055Z,111.40
2022-11-29T18:51:19.880Z,117.70
2022-11-29T18:54:56.834Z,122.90
2022-11-29T18:58:33.981Z,123.60
2022-11-29T19:02:12.747Z,125.00
2022-11-29T19:05:54.116Z,133.60
2022-11-29T19:09:26.046Z,134.10
2022-11-29T19:13:03.546Z,126.60
2022-11-29T19:16:44.616Z,129.80
2022-11-29T19:20:18.957Z,136.10
2022-11-29T19:24:00.945Z,137.10
2022-11-29T19:27:34.361Z,140.30
2022-11-29T19:31:14.663Z,123.30
2022-11-29T19:34:49.885Z,137.70
2022-11-29T19:38:27.876Z,130.00
2022-11-29T19:42:05.382Z,131.60
2022-11-29T19:45:43.014Z,140.60
2022-11-29T19:49:20.622Z,122.00
2022-11-29T19:52:59.519Z,141.70
2022-11-29T19:56:36.301Z,128.40
2022-11-29T20:00:14.723Z,141.30
2022-11-29T20:03:52.748Z,148.40
2022-11-29T20:07:29.473Z,126.90
2022-11-29T20:11:09.697Z,134.60
2022-11-29T20:14:44.516Z,142.50
2022-11-29T20:18:22.220Z,137.80
2022-11-29T20:21:59.825Z,136.70
2022-11-29T20:25:37.627Z,134.10
2022-11-29T20:29:16.601Z,140.80
2022-11-29T20:33:03.406Z,138.90
2022-11-29T20:37:56.662Z,135.70
2022-11-29T20:41:24.809Z,149.00
2022-11-29T20:45:09.912Z,134.80
2022-11-29T20:48:38.878Z,111.00
2022-11-29T20:52:38.223Z,126.10
2022-11-29T20:55:53.882Z,133.90
2022-11-29T20:59:31.513Z,140.00
2022-11-29T21:03:15.971Z,135.80
2022-11-29T21:06:46.921Z,126.40
2022-11-29T21:10:24.728Z,120.10
2022-11-29T21:14:04.530Z,147.00
2022-11-29T21:17:41.058Z,138.10
2022-11-29T21:21:38.186Z,151.20
2022-11-29T21:25:55.347Z,131.40
2022-11-29T21:29:16.102Z,137.80
2022-11-29T21:32:43.517Z,144.90
2022-11-29T21:36:21.553Z,148.30
2022-11-29T21:39:58.170Z,142.10
2022-11-29T21:44:04.791Z,132.90
2022-11-29T21:47:14.130Z,137.10
2022-11-29T21:50:51.628Z,151.10
2022-11-29T21:54:29.847Z,142.80
2022-11-29T21:58:06.934Z,147.00
2022-11-29T22:01:44.653Z,131.40
2022-11-29T22:05:22.240Z,156.70
2022-11-29T22:09:00.352Z,144.00
2022-11-29T22:12:38.934Z,159.40
2022-11-29T22:16:16.861Z,114.10
2022-11-29T22:19:53.909Z,128.10
2022-11-29T22:23:31.689Z,130.40
2022-11-29T22:27:08.668Z,150.60
2022-11-29T22:30:46.626Z,146.30
2022-11-29T22:34:27.661Z,127.20
2022-11-29T22:38:01.483Z,121.10
2022-11-29T22:41:40.428Z,145.40
2022-11-29T22:45:16.985Z,137.10
2022-11-29T22:48:56.945Z,151.20
2022-11-29T22:52:32.292Z,160.00
2022-11-29T22:56:11.675Z,173.20
2022-11-29T22:59:47.666Z,165.00
2022-11-29T23:03:25.631Z,140.40
2022-11-29T23:07:03.108Z,131.90
2022-11-29T23:10:40.732Z,127.50
2022-11-29T23:14:19.408Z,149.00
2022-11-29T23:17:56.323Z,114.70
2022-11-29T23:21:36.278Z,120.50
2022-11-29T23:25:11.730Z,129.90
2022-11-29T23:28:50.459Z,129.40
2022-11-29T23:32:27.037Z,124.30
2022-11-29T23:36:07.608Z,144.90
2022-11-29T23:39:42.547Z,122.00
2022-11-29T23:43:21.890Z,137.50
2022-11-29T23:46:57.699Z,121.40
2022-11-29T23:50:35.659Z,133.50
2022-11-29T23:54:13.265Z,136.00
2022-11-29T23:57:51.477Z,145.00
